Time;durP1;ratioP1;P1;durP2;ratioP2;P2;SDS_P1;SDS_P2;PMS_P1;PMS_P2;Temp;Humidity;BMP_temperature;BMP_pressure;BME280_temperature;BME280_humidity;BME280_pressure;Samples;Min_cycle;Max_cycle;Signal;HPM_P1;HPM_P2
2022/05/02 00:00:46;;;;;;;15.18;10.18;;;8.90;99.90;;;;;;4995416;28;20042;-72
2022/05/02 00:03:12;;;;;;;18.15;10.68;;;9.00;99.90;;;;;;4998182;28;20045;-72
2022/05/02 00:05:39;;;;;;;14.50;10.48;;;8.90;99.90;;;;;;4994000;28;20106;-71
2022/05/02 00:08:05;;;;;;;16.63;10.63;;;8.80;99.90;;;;;;4997481;28;20022;-72
2022/05/02 00:10:32;;;;;;;16.25;10.82;;;8.80;99.90;;;;;;4970311;28;20479;-71
2022/05/02 00:13:00;;;;;;;18.20;10.32;;;8.80;99.90;;;;;;4997461;28;20026;-71
2022/05/02 00:15:26;;;;;;;15.95;10.38;;;8.80;99.90;;;;;;4988875;28;20372;-71
2022/05/02 00:17:58;;;;;;;15.60;10.85;;;8.80;99.90;;;;;;4995177;28;20038;-71
2022/05/02 00:20:34;;;;;;;16.95;10.52;;;8.80;99.90;;;;;;4995256;28;20022;-71
2022/05/02 00:23:03;;;;;;;15.82;11.02;;;8.70;99.90;;;;;;4977118;28;20022;-71
2022/05/02 00:25:29;;;;;;;15.50;10.88;;;8.70;99.90;;;;;;4992688;28;20104;-71
2022/05/02 00:27:56;;;;;;;17.65;11.68;;;8.70;99.90;;;;;;4997159;28;20109;-71
2022/05/02 00:30:22;;;;;;;17.20;10.88;;;8.70;99.90;;;;;;5000592;28;20509;-71
2022/05/02 00:32:48;;;;;;;14.48;10.90;;;8.70;99.90;;;;;;4998552;28;20507;-71
2022/05/02 00:35:14;;;;;;;14.80;10.48;;;8.70;99.90;;;;;;4976974;28;20391;-71
2022/05/02 00:37:41;;;;;;;17.63;11.18;;;8.60;99.90;;;;;;4977006;28;20034;-71
2022/05/02 00:40:10;;;;;;;15.23;10.25;;;8.60;99.90;;;;;;4986648;28;20053;-71
2022/05/02 00:42:36;;;;;;;15.38;10.73;;;8.60;99.90;;;;;;4999078;28;20030;-71
2022/05/02 00:45:05;;;;;;;14.10;9.57;;;8.60;99.90;;;;;;4994552;28;20018;-72
2022/05/02 00:47:31;;;;;;;18.35;11.60;;;8.60;99.90;;;;;;4982485;28;20023;-71
2022/05/02 00:49:56;;;;;;;19.20;11.05;;;8.60;99.90;;;;;;4970443;28;20085;-71
2022/05/02 00:52:22;;;;;;;19.02;11.38;;;8.60;99.90;;;;;;4999419;28;20026;-72
2022/05/02 00:54:48;;;;;;;16.45;11.45;;;8.50;99.90;;;;;;4984312;28;20096;-71
2022/05/02 00:57:16;;;;;;;20.52;10.82;;;8.50;99.90;;;;;;4992769;28;20145;-71
2022/05/02 00:59:42;;;;;;;17.85;10.68;;;8.50;99.90;;;;;;4995002;28;20022;-71
2022/05/02 01:02:12;;;;;;;15.32;10.77;;;8.40;99.90;;;;;;4977481;28;20037;-71
2022/05/02 01:04:37;;;;;;;17.23;11.27;;;8.40;99.90;;;;;;4979079;28;20026;-71
2022/05/02 01:07:11;;;;;;;17.05;11.82;;;8.40;99.90;;;;;;4995151;28;20025;-71
2022/05/02 01:09:39;;;;;;;19.13;11.50;;;8.40;99.90;;;;;;4997799;28;20036;-71
2022/05/02 01:12:12;;;;;;;17.70;11.45;;;8.30;99.90;;;;;;4991300;28;20500;-71
2022/05/02 01:14:38;;;;;;;17.93;11.40;;;8.30;99.90;;;;;;4994589;28;20117;-72
2022/05/02 01:17:04;;;;;;;16.25;11.65;;;8.30;99.90;;;;;;4996078;28;20049;-71
2022/05/02 01:19:31;;;;;;;17.73;11.07;;;8.20;99.90;;;;;;4964417;28;20287;-71
2022/05/02 01:21:57;;;;;;;17.85;11.15;;;8.20;99.90;;;;;;4977169;28;20035;-72
2022/05/02 01:24:38;;;;;;;17.15;11.73;;;8.20;99.90;;;;;;4995048;28;20023;-71
2022/05/02 01:27:05;;;;;;;16.88;11.48;;;8.20;99.90;;;;;;4994936;28;20101;-72
2022/05/02 01:29:32;;;;;;;17.73;11.27;;;8.10;99.90;;;;;;4996211;28;20018;-71
2022/05/02 01:31:59;;;;;;;18.50;11.25;;;8.10;99.90;;;;;;4994618;28;20388;-71
2022/05/02 01:34:25;;;;;;;16.85;11.32;;;8.10;99.90;;;;;;4992666;28;20034;-71
2022/05/02 01:36:51;;;;;;;18.60;11.30;;;8.10;99.90;;;;;;4975705;28;20030;-71
2022/05/02 01:39:16;;;;;;;16.17;11.63;;;8.10;99.90;;;;;;4974864;28;20250;-71
2022/05/02 01:41:42;;;;;;;21.00;11.60;;;8.10;99.90;;;;;;4995135;28;20117;-71
2022/05/02 01:44:08;;;;;;;18.02;12.55;;;8.00;99.90;;;;;;4972361;28;20025;-70
2022/05/02 01:46:34;;;;;;;16.92;11.23;;;8.10;99.90;;;;;;4999161;28;20033;-71
2022/05/02 01:49:00;;;;;;;18.67;11.60;;;8.10;99.90;;;;;;4992727;28;20031;-71
2022/05/02 01:51:25;;;;;;;17.77;12.68;;;8.00;99.90;;;;;;4995920;28;20383;-71
2022/05/02 01:53:51;;;;;;;16.35;11.27;;;8.00;99.90;;;;;;4993408;28;20061;-70
2022/05/02 01:56:17;;;;;;;16.60;11.30;;;8.00;99.90;;;;;;5002470;28;20034;-71
2022/05/02 01:58:42;;;;;;;18.67;11.75;;;7.80;99.90;;;;;;4990806;28;20041;-72
2022/05/02 02:01:08;;;;;;;18.25;11.52;;;7.80;99.90;;;;;;4992496;28;20030;-72
2022/05/02 02:03:34;;;;;;;17.15;12.07;;;7.80;99.90;;;;;;4994450;28;20031;-72
2022/05/02 02:06:00;;;;;;;17.05;12.23;;;7.80;99.90;;;;;;4990231;28;20101;-72
2022/05/02 02:08:31;;;;;;;18.92;11.63;;;7.80;99.90;;;;;;4992988;28;20134;-72
2022/05/02 02:11:02;;;;;;;19.45;11.88;;;7.80;99.90;;;;;;4989867;28;20014;-72
2022/05/02 02:13:28;;;;;;;18.05;11.90;;;7.80;99.90;;;;;;4978694;28;20089;-70
2022/05/02 02:15:54;;;;;;;16.42;11.35;;;7.70;99.90;;;;;;4993614;28;20034;-70
2022/05/02 02:18:20;;;;;;;18.38;11.55;;;7.70;99.90;;;;;;4993831;28;20360;-70
2022/05/02 02:20:48;;;;;;;19.45;12.50;;;7.60;99.90;;;;;;4976579;28;20048;-70
2022/05/02 02:23:15;;;;;;;19.13;11.20;;;7.60;99.90;;;;;;4993577;28;20483;-70
2022/05/02 02:25:41;;;;;;;18.55;12.15;;;7.60;99.90;;;;;;4994013;28;20408;-70
2022/05/02 02:28:07;;;;;;;15.52;11.23;;;7.60;99.90;;;;;;4993362;28;20038;-70
2022/05/02 02:30:33;;;;;;;17.85;11.02;;;7.60;99.90;;;;;;4993852;28;20022;-70
2022/05/02 02:33:01;;;;;;;23.02;12.00;;;7.60;99.90;;;;;;4993855;28;20092;-70
2022/05/02 02:35:27;;;;;;;16.83;12.10;;;7.50;99.90;;;;;;4993917;28;20031;-70
2022/05/02 02:37:53;;;;;;;19.83;12.25;;;7.50;99.90;;;;;;4993750;28;20050;-70
2022/05/02 02:40:19;;;;;;;17.00;11.25;;;7.50;99.90;;;;;;5008073;28;20552;-70
2022/05/02 02:42:45;;;;;;;17.00;11.65;;;7.50;99.90;;;;;;4994032;28;20118;-70
2022/05/02 02:45:11;;;;;;;19.17;12.50;;;7.50;99.90;;;;;;4995287;28;20081;-70
2022/05/02 02:47:37;;;;;;;18.77;11.82;;;7.40;99.90;;;;;;4998621;28;20026;-70
2022/05/02 02:50:03;;;;;;;17.67;12.32;;;7.40;99.90;;;;;;4995806;28;20438;-70
2022/05/02 02:52:29;;;;;;;16.80;11.88;;;7.40;99.90;;;;;;4993049;28;20080;-71
2022/05/02 02:54:55;;;;;;;18.58;11.80;;;7.40;99.90;;;;;;4977162;28;20031;-70
2022/05/02 02:57:21;;;;;;;15.98;10.73;;;7.40;99.90;;;;;;5003875;28;20026;-70
2022/05/02 02:59:46;;;;;;;18.38;12.23;;;7.40;99.90;;;;;;5005768;28;20503;-69
2022/05/02 03:02:13;;;;;;;21.15;12.30;;;7.40;99.90;;;;;;4992577;28;20026;-70
2022/05/02 03:07:24;;;;;;;17.58;12.48;;;7.40;99.90;;;;;;4993595;28;20092;-69
2022/05/02 03:09:50;;;;;;;20.23;12.27;;;7.40;99.90;;;;;;4993134;28;20386;-69
2022/05/02 03:12:16;;;;;;;18.50;12.43;;;7.40;99.90;;;;;;4993379;28;20054;-69
2022/05/02 03:14:42;;;;;;;19.23;11.73;;;7.40;99.90;;;;;;4975715;28;20068;-69
2022/05/02 03:17:07;;;;;;;19.83;12.07;;;7.30;99.90;;;;;;4992771;28;20083;-69
2022/05/02 03:19:33;;;;;;;15.85;11.82;;;7.20;99.90;;;;;;4992921;28;20085;-69
2022/05/02 03:21:59;;;;;;;20.63;11.40;;;7.30;99.90;;;;;;4975199;28;20483;-69
2022/05/02 03:24:24;;;;;;;18.52;12.48;;;7.30;99.90;;;;;;4993092;28;20030;-69
2022/05/02 03:26:50;;;;;;;23.33;13.18;;;7.20;99.90;;;;;;4992129;28;20045;-69
2022/05/02 03:29:15;;;;;;;19.77;12.75;;;7.20;99.90;;;;;;4992828;28;20026;-69
2022/05/02 03:31:41;;;;;;;17.70;12.32;;;7.10;99.90;;;;;;4975310;28;20527;-70
2022/05/02 03:34:07;;;;;;;19.67;12.13;;;7.00;99.90;;;;;;4978519;28;20475;-69
2022/05/02 03:36:34;;;;;;;19.10;12.30;;;7.00;99.90;;;;;;4982936;28;20476;-70
2022/05/02 03:38:59;;;;;;;18.85;12.00;;;7.00;99.90;;;;;;5005190;28;20026;-70
2022/05/02 03:41:25;;;;;;;16.92;11.02;;;6.90;99.90;;;;;;4993208;28;20029;-70
2022/05/02 03:43:50;;;;;;;22.13;11.85;;;6.90;99.90;;;;;;4991798;28;20027;-70
2022/05/02 03:46:16;;;;;;;19.58;12.63;;;6.90;99.90;;;;;;4989925;28;20550;-70
2022/05/02 03:48:44;;;;;;;18.70;13.07;;;6.90;99.90;;;;;;4997725;28;20630;-70
2022/05/02 03:51:10;;;;;;;18.17;11.65;;;6.80;99.90;;;;;;5006476;28;20038;-70
2022/05/02 03:53:36;;;;;;;21.65;12.65;;;6.80;99.90;;;;;;4992157;28;20026;-70
2022/05/02 03:56:02;;;;;;;17.73;12.00;;;6.80;99.90;;;;;;4990793;28;20177;-70
2022/05/02 03:58:27;;;;;;;22.95;13.77;;;6.80;99.90;;;;;;4976073;28;20400;-69
2022/05/02 04:00:53;;;;;;;21.88;13.05;;;6.70;99.90;;;;;;4993487;28;20027;-70
2022/05/02 04:03:19;;;;;;;24.15;14.10;;;6.80;99.90;;;;;;5000646;28;20031;-69
2022/05/02 04:05:44;;;;;;;22.90;12.48;;;6.70;99.90;;;;;;4994647;28;20089;-69
2022/05/02 04:08:10;;;;;;;20.65;13.57;;;6.80;99.90;;;;;;4992510;28;20026;-69
2022/05/02 04:10:36;;;;;;;22.15;14.07;;;6.80;99.90;;;;;;4992309;28;20027;-70
2022/05/02 04:13:01;;;;;;;21.15;13.32;;;6.80;99.90;;;;;;4992677;28;20383;-69
2022/05/02 04:15:27;;;;;;;19.90;12.95;;;6.80;99.90;;;;;;5000209;28;20025;-70
2022/05/02 04:17:55;;;;;;;24.05;14.57;;;6.80;99.90;;;;;;4992257;28;20034;-70
2022/05/02 04:20:21;;;;;;;19.42;13.25;;;6.80;99.90;;;;;;4993205;28;20029;-69
2022/05/02 04:22:47;;;;;;;18.75;11.95;;;6.80;99.90;;;;;;4992725;28;20027;-69
2022/05/02 04:25:13;;;;;;;23.25;13.63;;;6.80;99.90;;;;;;4991881;28;20492;-69
2022/05/02 04:27:38;;;;;;;19.10;12.20;;;6.80;99.90;;;;;;4996375;28;20112;-69
2022/05/02 04:30:04;;;;;;;22.77;13.50;;;6.80;99.90;;;;;;4986512;28;20034;-69
2022/05/02 04:32:30;;;;;;;20.90;13.75;;;6.90;99.90;;;;;;4991807;28;20112;-69
2022/05/02 04:34:58;;;;;;;19.10;12.20;;;6.90;99.90;;;;;;4997709;28;20026;-69
2022/05/02 04:37:24;;;;;;;21.58;13.48;;;6.80;99.90;;;;;;4974589;28;20022;-70
2022/05/02 04:39:50;;;;;;;24.10;13.15;;;6.90;99.90;;;;;;4997712;28;20057;-70
2022/05/02 04:42:15;;;;;;;19.92;13.63;;;6.90;99.90;;;;;;4998524;28;20204;-70
2022/05/02 04:44:41;;;;;;;23.38;13.70;;;6.90;99.90;;;;;;5007009;28;20141;-70
2022/05/02 04:47:07;;;;;;;20.60;14.57;;;7.00;99.90;;;;;;4995640;28;20423;-70
2022/05/02 04:49:32;;;;;;;24.48;13.55;;;7.00;99.90;;;;;;4994627;28;20026;-70
2022/05/02 04:51:58;;;;;;;19.45;13.48;;;7.00;99.90;;;;;;4995654;28;20030;-71
2022/05/02 04:54:24;;;;;;;21.40;12.70;;;7.00;99.90;;;;;;4990802;28;20081;-70
2022/05/02 04:56:49;;;;;;;18.88;12.25;;;7.10;99.90;;;;;;4995530;28;20057;-69
2022/05/02 04:59:15;;;;;;;23.25;14.68;;;7.10;99.90;;;;;;4977885;28;20544;-69
2022/05/02 05:01:41;;;;;;;22.50;14.10;;;7.10;99.90;;;;;;4995627;28;20026;-69
2022/05/02 05:04:06;;;;;;;18.10;12.40;;;7.20;99.90;;;;;;4994050;28;20022;-68
2022/05/02 05:06:32;;;;;;;22.15;13.35;;;7.30;99.90;;;;;;4996894;28;20097;-71
2022/05/02 05:08:58;;;;;;;21.85;13.02;;;7.40;99.90;;;;;;5015129;28;20026;-70
2022/05/02 05:11:45;;;;;;;18.25;11.77;;;7.50;99.90;;;;;;5015166;28;20029;-70
2022/05/02 05:17:27;;;;;;;22.42;12.27;;;7.80;99.90;;;;;;4995750;28;20388;-69
2022/05/02 05:20:30;;;;;;;18.33;12.00;;;8.00;99.90;;;;;;4995515;28;20105;-70
2022/05/02 05:23:05;;;;;;;17.13;11.55;;;8.10;99.90;;;;;;4990913;28;20030;-70
2022/05/02 05:26:15;;;;;;;17.75;12.40;;;8.20;99.90;;;;;;4986793;28;20030;-63
2022/05/02 05:29:04;;;;;;;19.73;11.73;;;8.40;99.90;;;;;;4985192;28;20026;-71
2022/05/02 05:31:36;;;;;;;20.45;12.68;;;8.60;99.90;;;;;;4995142;28;20026;-71
2022/05/02 05:34:21;;;;;;;21.00;13.50;;;8.70;99.90;;;;;;4995176;28;20089;-70
2022/05/02 05:37:24;;;;;;;18.55;12.35;;;8.90;99.90;;;;;;4995004;28;20109;-70
2022/05/02 05:40:05;;;;;;;23.38;12.43;;;9.00;99.90;;;;;;4962941;28;20046;-70
2022/05/02 05:42:56;;;;;;;19.58;12.00;;;9.10;99.90;;;;;;4992042;28;20023;-74
2022/05/02 05:45:56;;;;;;;16.88;11.80;;;9.30;99.90;;;;;;4994336;28;20062;-74
2022/05/02 05:48:30;;;;;;;19.10;11.90;;;9.50;99.90;;;;;;4992449;28;20456;-72
2022/05/02 05:51:11;;;;;;;19.25;11.48;;;9.60;99.90;;;;;;4991540;28;20095;-73
2022/05/02 05:54:14;;;;;;;18.48;12.05;;;9.80;99.90;;;;;;4987335;28;20058;-73
2022/05/02 05:56:51;;;;;;;19.35;11.63;;;9.90;99.90;;;;;;4987144;28;20088;-73
2022/05/02 05:59:32;;;;;;;18.50;12.30;;;10.00;99.90;;;;;;4990336;28;20018;-74
2022/05/02 06:02:10;;;;;;;15.52;11.95;;;10.00;99.90;;;;;;4990947;28;20057;-74
2022/05/02 06:04:36;;;;;;;18.67;12.93;;;10.00;99.90;;;;;;4961358;28;20097;-74
2022/05/02 06:07:03;;;;;;;16.92;11.90;;;9.90;99.90;;;;;;4987117;28;20030;-75
2022/05/02 06:09:30;;;;;;;17.02;11.90;;;10.00;99.90;;;;;;4988718;28;20057;-72
2022/05/02 06:11:58;;;;;;;20.85;12.73;;;10.00;99.90;;;;;;4983858;28;20117;-72
2022/05/02 06:14:30;;;;;;;26.85;16.40;;;10.00;99.90;;;;;;4960944;28;20026;-72
2022/05/02 06:19:46;;;;;;;21.88;12.80;;;10.00;99.90;;;;;;4980749;28;20049;-71
2022/05/02 06:22:12;;;;;;;21.83;12.57;;;9.90;99.90;;;;;;4982012;28;20027;-72
2022/05/02 06:24:44;;;;;;;18.10;13.07;;;10.00;99.90;;;;;;4979420;28;20022;-72
2022/05/02 06:27:11;;;;;;;21.88;14.25;;;9.90;99.90;;;;;;4982935;28;20034;-72
2022/05/02 06:29:41;;;;;;;19.38;11.52;;;10.00;99.90;;;;;;4981692;28;20041;-71
2022/05/02 06:32:12;;;;;;;19.13;13.20;;;10.10;99.90;;;;;;4974056;28;20246;-71
2022/05/02 06:34:39;;;;;;;17.65;13.05;;;10.10;99.90;;;;;;4980060;28;20506;-71
2022/05/02 06:37:17;;;;;;;20.77;12.90;;;9.90;99.90;;;;;;4961558;28;20032;-72
2022/05/02 06:39:55;;;;;;;19.83;13.07;;;10.10;99.90;;;;;;4979929;28;20025;-72
2022/05/02 06:42:33;;;;;;;20.50;13.40;;;10.20;99.90;;;;;;4977511;28;20033;-72
2022/05/02 06:45:06;;;;;;;18.73;13.30;;;10.20;99.90;;;;;;4984211;28;20037;-72
2022/05/02 06:47:53;;;;;;;20.65;14.00;;;10.30;99.90;;;;;;4976206;28;20113;-72
2022/05/02 06:50:23;;;;;;;19.10;12.95;;;10.40;99.90;;;;;;4975029;28;20033;-72
2022/05/02 06:52:52;;;;;;;20.05;14.13;;;10.50;99.90;;;;;;4982543;28;20066;-72
2022/05/02 06:55:51;;;;;;;21.65;14.48;;;10.60;99.90;;;;;;4984652;28;20026;-72
2022/05/02 06:58:25;;;;;;;20.88;14.23;;;10.70;99.90;;;;;;4963027;28;20483;-72
2022/05/02 07:01:29;;;;;;;26.17;15.88;;;10.60;99.90;;;;;;4979483;28;20038;-72
2022/05/02 07:04:24;;;;;;;20.50;13.82;;;10.60;99.90;;;;;;4971553;28;20507;-72
2022/05/02 07:07:08;;;;;;;23.33;14.05;;;10.60;99.90;;;;;;4959480;28;20126;-72
2022/05/02 07:10:10;;;;;;;20.25;14.27;;;10.70;99.90;;;;;;4980099;28;20022;-72
2022/05/02 07:12:59;;;;;;;20.48;13.18;;;10.80;99.90;;;;;;4944398;28;20600;-72
2022/05/02 07:15:44;;;;;;;18.35;13.38;;;10.80;99.90;;;;;;4975791;28;20411;-72
2022/05/02 07:18:30;;;;;;;20.63;14.23;;;11.00;99.90;;;;;;4977605;28;20413;-72
2022/05/02 07:21:38;;;;;;;24.15;14.35;;;11.10;99.90;;;;;;4979987;28;20026;-72
2022/05/02 07:24:17;;;;;;;18.88;13.52;;;11.20;99.90;;;;;;4968289;28;20392;-72
2022/05/02 07:26:50;;;;;;;20.20;14.02;;;11.20;99.90;;;;;;4963655;28;20038;-71
2022/05/02 07:29:17;;;;;;;25.48;15.30;;;11.20;99.90;;;;;;4979930;28;20374;-71
2022/05/02 07:31:44;;;;;;;20.38;14.18;;;11.30;99.90;;;;;;4982005;28;20054;-72
2022/05/02 07:34:15;;;;;;;19.45;12.85;;;11.40;99.90;;;;;;4963366;28;20364;-72
2022/05/02 07:36:43;;;;;;;19.13;13.25;;;11.40;99.90;;;;;;4983082;28;20501;-72
2022/05/02 07:39:15;;;;;;;19.90;13.32;;;11.50;99.90;;;;;;4982407;28;20027;-72
2022/05/02 07:41:43;;;;;;;24.08;14.38;;;11.60;99.90;;;;;;4981793;28;20381;-72
2022/05/02 07:44:12;;;;;;;18.08;13.18;;;11.80;99.90;;;;;;4980947;28;20170;-72
2022/05/02 07:46:43;;;;;;;22.52;14.23;;;11.90;99.90;;;;;;4983062;28;20052;-72
2022/05/02 07:49:10;;;;;;;20.05;14.48;;;12.00;99.90;;;;;;4978862;28;20031;-72
2022/05/02 07:51:47;;;;;;;19.13;13.63;;;12.00;99.90;;;;;;4982735;28;20034;-71
2022/05/02 07:54:23;;;;;;;18.92;13.10;;;12.10;99.90;;;;;;4961180;28;20149;-72
2022/05/02 07:56:51;;;;;;;16.88;12.52;;;12.10;99.90;;;;;;4981267;28;20679;-72
2022/05/02 07:59:20;;;;;;;19.23;12.57;;;12.20;99.90;;;;;;4977407;28;20041;-72
2022/05/02 08:01:46;;;;;;;20.13;13.30;;;12.20;99.90;;;;;;4963046;28;20023;-71
2022/05/02 08:04:13;;;;;;;23.73;12.65;;;12.20;99.90;;;;;;4976858;28;20035;-72
2022/05/02 08:06:52;;;;;;;22.05;13.23;;;12.20;99.90;;;;;;4982348;28;20056;-72
2022/05/02 08:09:45;;;;;;;16.20;12.25;;;12.40;99.90;;;;;;4981118;28;20026;-71
2022/05/02 08:12:37;;;;;;;22.35;14.13;;;12.50;99.90;;;;;;4969437;28;20138;-71
2022/05/02 08:15:10;;;;;;;18.98;13.20;;;12.70;99.90;;;;;;4987437;28;20085;-71
2022/05/02 08:17:55;;;;;;;20.65;13.10;;;12.80;99.90;;;;;;4985731;28;20026;-71
2022/05/02 08:20:20;;;;;;;;;;;12.90;99.90;;;;;;4986171;28;20085;-71
2022/05/02 08:28:54;;;;;;;16.30;11.70;;;13.10;99.90;;;;;;4957168;28;20069;-71
2022/05/02 08:31:25;;;;;;;17.25;11.73;;;13.20;99.90;;;;;;4984857;28;20034;-70
2022/05/02 08:34:24;;;;;;;22.52;12.27;;;13.30;99.90;;;;;;4982153;28;20026;-71
2022/05/02 08:37:17;;;;;;;17.98;11.55;;;13.40;99.90;;;;;;4984813;28;20033;-71
2022/05/02 08:40:09;;;;;;;17.98;11.75;;;13.40;99.90;;;;;;4984589;28;20034;-71
2022/05/02 08:43:12;;;;;;;16.70;11.35;;;13.40;99.90;;;;;;4966811;28;20030;-71
2022/05/02 08:45:59;;;;;;;20.08;12.48;;;13.50;99.90;;;;;;4975641;28;20035;-71
2022/05/02 08:52:22;;;;;;;17.20;11.77;;;13.70;99.90;;;;;;4963962;28;20467;-71
2022/05/02 08:55:02;;;;;;;16.25;11.73;;;13.80;99.90;;;;;;4981060;28;21185;-71
2022/05/02 08:57:53;;;;;;;20.55;11.90;;;13.90;99.90;;;;;;4981370;28;20049;-72
2022/05/02 09:00:34;;;;;;;17.67;11.63;;;14.00;99.90;;;;;;4987826;28;20018;-72
2022/05/02 09:03:18;;;;;;;15.73;11.52;;;14.10;99.90;;;;;;4984939;28;20313;-74
2022/05/02 09:06:22;;;;;;;15.98;12.57;;;14.10;99.90;;;;;;4984701;28;20025;-71
2022/05/02 09:09:08;;;;;;;16.50;12.00;;;14.10;99.90;;;;;;4976751;28;20109;-71
2022/05/02 09:11:53;;;;;;;18.92;12.43;;;14.10;99.90;;;;;;4982644;28;20038;-70
2022/05/02 09:14:56;;;;;;;19.10;12.27;;;14.20;99.90;;;;;;4977840;28;20042;-74
2022/05/02 09:17:53;;;;;;;15.73;11.98;;;14.40;99.90;;;;;;4984288;28;20502;-72
2022/05/02 09:20:24;;;;;;;17.85;12.18;;;14.50;99.90;;;;;;4981930;28;20128;-71
2022/05/02 09:23:08;;;;;;;16.65;11.98;;;14.50;99.90;;;;;;4980230;28;20038;-71
2022/05/02 09:25:53;;;;;;;14.63;10.98;;;14.60;99.90;;;;;;4985759;28;20030;-71
2022/05/02 09:28:23;;;;;;;14.38;10.68;;;14.60;99.90;;;;;;4981293;28;20038;-71
2022/05/02 09:31:21;;;;;;;16.95;11.15;;;14.50;99.90;;;;;;4978870;28;20026;-72
2022/05/02 09:34:13;;;;;;;17.75;11.70;;;14.60;99.90;;;;;;4974190;28;20042;-72
2022/05/02 09:37:26;;;;;;;17.02;12.13;;;14.60;99.90;;;;;;4978822;28;20049;-72
2022/05/02 09:40:01;;;;;;;16.50;11.25;;;14.60;99.90;;;;;;4966335;28;20121;-72
2022/05/02 09:42:56;;;;;;;18.88;10.70;;;14.60;99.90;;;;;;4985328;28;20117;-73
2022/05/02 09:51:48;;;;;;;16.45;11.27;;;15.10;99.90;;;;;;4978105;28;20034;-73
2022/05/02 09:57:44;;;;;;;17.13;11.00;;;15.40;99.90;;;;;;4981283;28;20089;-71
2022/05/02 10:03:13;;;;;;;14.15;10.82;;;15.60;99.90;;;;;;4984895;28;20037;-71
2022/05/02 10:05:52;;;;;;;14.45;10.40;;;15.60;99.70;;;;;;4979742;28;20029;-71
2022/05/02 10:08:47;;;;;;;13.23;10.35;;;15.60;99.50;;;;;;4985084;28;20428;-70
2022/05/02 10:11:20;;;;;;;16.27;10.52;;;15.70;99.60;;;;;;4983953;28;20030;-71
2022/05/02 10:13:49;;;;;;;15.87;10.40;;;15.80;99.20;;;;;;4981433;28;20197;-71
2022/05/02 10:16:18;;;;;;;16.52;10.27;;;16.00;99.00;;;;;;4984187;28;20064;-71
2022/05/02 10:18:51;;;;;;;14.77;10.70;;;16.20;98.80;;;;;;4981195;28;20099;-71
2022/05/02 10:21:37;;;;;;;13.90;11.30;;;16.30;98.30;;;;;;4982010;28;20045;-71
2022/05/02 10:24:16;;;;;;;14.65;10.05;;;16.40;97.90;;;;;;4982576;28;20088;-71
2022/05/02 10:26:44;;;;;;;14.10;10.38;;;16.40;98.50;;;;;;4979049;28;20034;-72
2022/05/02 10:29:47;;;;;;;11.48;9.63;;;16.40;98.40;;;;;;4981693;28;20081;-70
2022/05/02 10:32:24;;;;;;;13.52;9.70;;;16.40;98.40;;;;;;4977631;28;20501;-71
2022/05/02 10:34:52;;;;;;;14.57;10.32;;;16.30;97.90;;;;;;4980349;28;20033;-70
2022/05/02 10:37:27;;;;;;;14.93;9.77;;;16.30;98.10;;;;;;4983022;28;20022;-71
2022/05/02 10:40:03;;;;;;;12.05;9.77;;;16.40;97.80;;;;;;4980798;28;20041;-72
2022/05/02 10:42:31;;;;;;;11.80;9.32;;;16.30;97.40;;;;;;4976218;28;20034;-71
2022/05/02 10:45:03;;;;;;;12.90;8.35;;;16.30;97.70;;;;;;4979343;28;21536;-71
2022/05/02 10:47:38;;;;;;;11.40;8.23;;;16.30;97.10;;;;;;4990569;28;20026;-70
2022/05/02 10:50:26;;;;;;;9.60;7.30;;;16.40;95.50;;;;;;4983460;28;20019;-71
2022/05/02 10:53:10;;;;;;;10.50;8.02;;;16.30;95.90;;;;;;4979449;28;20083;-72
2022/05/02 10:56:06;;;;;;;10.23;7.23;;;16.40;95.40;;;;;;4987094;28;20058;-72
2022/05/02 10:58:34;;;;;;;10.27;7.88;;;16.40;95.90;;;;;;4981372;28;20323;-72
2022/05/02 11:01:06;;;;;;;11.43;8.05;;;16.50;95.80;;;;;;4961669;28;20434;-73
2022/05/02 11:03:49;;;;;;;11.43;7.78;;;16.50;95.30;;;;;;4982517;28;20034;-71
2022/05/02 11:06:40;;;;;;;9.10;6.43;;;16.60;94.40;;;;;;4980518;28;20041;-68
2022/05/02 11:09:12;;;;;;;11.27;6.78;;;16.70;94.60;;;;;;4984164;28;20455;-71
2022/05/02 11:11:51;;;;;;;8.05;6.30;;;16.70;94.20;;;;;;4981042;28;20053;-70
2022/05/02 11:14:22;;;;;;;10.18;6.38;;;16.80;94.50;;;;;;4982391;28;20372;-73
2022/05/02 11:17:09;;;;;;;8.43;6.30;;;17.00;93.40;;;;;;4980387;28;20038;-72
2022/05/02 11:23:21;;;;;;;9.00;5.70;;;17.10;91.50;;;;;;4978790;28;20475;-73
2022/05/02 11:25:59;;;;;;;9.93;6.30;;;17.30;90.20;;;;;;4983615;28;20120;-72
2022/05/02 11:28:52;;;;;;;10.13;6.82;;;17.30;89.40;;;;;;4979822;28;20487;-67
2022/05/02 11:31:47;;;;;;;8.00;5.30;;;17.40;90.00;;;;;;4979999;28;20431;-68
2022/05/02 11:34:28;;;;;;;10.23;5.75;;;17.60;88.80;;;;;;4979201;28;20350;-69
2022/05/02 11:36:57;;;;;;;7.60;5.60;;;17.80;88.40;;;;;;4963496;28;20041;-68
2022/05/02 11:39:45;;;;;;;9.70;5.10;;;18.10;88.00;;;;;;4981709;28;20124;-66
2022/05/02 11:42:14;;;;;;;5.72;4.63;;;18.30;85.60;;;;;;5020253;23;20050;-66
2022/05/02 11:45:10;;;;;;;9.60;4.53;;;18.50;84.60;;;;;;5000753;28;20512;-67
2022/05/02 11:48:16;;;;;;;8.93;5.30;;;18.70;81.80;;;;;;4980752;28;20511;-74
2022/05/02 11:50:44;;;;;;;8.80;6.07;;;18.70;80.50;;;;;;4999039;28;20022;-75
2022/05/02 11:53:13;;;;;;;6.90;5.53;;;18.50;81.60;;;;;;5001118;28;20429;-74
2022/05/02 11:55:40;;;;;;;7.55;5.45;;;18.50;81.10;;;;;;5004751;28;20054;-74
2022/05/02 11:58:09;;;;;;;8.93;4.97;;;18.50;82.10;;;;;;4977804;28;20026;-74
2022/05/02 12:00:37;;;;;;;8.18;5.43;;;18.40;82.40;;;;;;5001950;28;20088;-74
2022/05/02 12:03:16;;;;;;;10.85;6.32;;;18.30;80.60;;;;;;5002036;28;20021;-75
2022/05/02 12:05:52;;;;;;;6.15;4.78;;;18.30;80.70;;;;;;5001914;28;20029;-75
2022/05/02 12:08:22;;;;;;;8.00;5.72;;;18.30;80.80;;;;;;4998673;28;20360;-74
2022/05/02 12:10:48;;;;;;;9.90;7.70;;;18.40;80.50;;;;;;5010312;28;20022;-73
2022/05/02 12:13:21;;;;;;;9.18;5.75;;;18.60;80.00;;;;;;4991497;28;20439;-73
2022/05/02 12:15:58;;;;;;;5.82;5.00;;;18.60;78.70;;;;;;5002622;28;20061;-76
2022/05/02 12:18:38;;;;;;;7.53;4.70;;;18.70;77.20;;;;;;4995081;28;20149;-74
2022/05/02 12:21:07;;;;;;;8.70;6.20;;;18.70;76.60;;;;;;5000574;28;20072;-74
2022/05/02 12:23:36;;;;;;;8.52;5.10;;;18.90;77.40;;;;;;4999481;28;20033;-74
2022/05/02 12:26:05;;;;;;;7.90;5.15;;;18.90;77.30;;;;;;4995793;28;20026;-75
2022/05/02 12:28:44;;;;;;;6.82;4.85;;;19.10;76.40;;;;;;4980746;28;21805;-74
2022/05/02 12:31:19;;;;;;;6.78;5.47;;;19.00;75.70;;;;;;4995072;28;20018;-75
2022/05/02 12:33:50;;;;;;;8.23;5.35;;;19.20;76.00;;;;;;4976926;28;20112;-75
2022/05/02 12:36:20;;;;;;;6.50;5.22;;;19.20;74.50;;;;;;4972276;28;20021;-75
2022/05/02 12:39:04;;;;;;;6.53;5.35;;;19.00;74.10;;;;;;4979866;28;20164;-75
2022/05/02 12:41:44;;;;;;;8.98;4.80;;;19.00;73.20;;;;;;4990339;28;20154;-75
2022/05/02 12:44:13;;;;;;;8.13;5.40;;;19.00;72.70;;;;;;4997979;28;20486;-74
2022/05/02 12:46:43;;;;;;;6.90;5.07;;;18.90;73.60;;;;;;4992394;28;20034;-75
2022/05/02 12:49:21;;;;;;;6.70;4.50;;;18.90;73.90;;;;;;4981105;28;20509;-75
2022/05/02 12:51:52;;;;;;;8.27;5.10;;;18.80;72.00;;;;;;4995231;28;20148;-75
2022/05/02 12:54:20;;;;;;;7.75;4.75;;;18.90;72.30;;;;;;5000382;28;20033;-75
2022/05/02 13:02:35;;;;;;;6.22;4.78;;;19.00;73.30;;;;;;5010392;28;20586;-75
2022/05/02 13:05:25;;;;;;;7.13;4.95;;;19.10;72.10;;;;;;5007725;28;20028;-74
2022/05/02 13:07:53;;;;;;;6.03;4.40;;;19.00;72.10;;;;;;5008692;28;20195;-75
2022/05/02 13:10:20;;;;;;;7.38;4.18;;;18.90;70.30;;;;;;4996824;28;20120;-74
2022/05/02 13:13:13;;;;;;;7.82;6.18;;;18.90;70.20;;;;;;4978077;28;20370;-78
2022/05/02 13:15:48;;;;;;;5.03;4.13;;;19.10;68.40;;;;;;5002010;28;20049;-76
2022/05/02 13:18:21;;;;;;;4.93;4.00;;;19.20;68.00;;;;;;5011260;28;20049;-78
2022/05/02 13:21:00;;;;;;;4.50;3.42;;;19.40;69.40;;;;;;5007015;28;22064;-77
2022/05/02 13:23:40;;;;;;;4.88;3.83;;;19.50;69.50;;;;;;5004276;28;20061;-75
2022/05/02 13:26:18;;;;;;;4.65;3.35;;;19.60;69.50;;;;;;5006256;28;20491;-73
2022/05/02 13:29:07;;;;;;;5.32;3.38;;;19.50;68.90;;;;;;5006154;28;20026;-73
2022/05/02 13:31:39;;;;;;;6.40;3.78;;;19.60;68.50;;;;;;4978669;28;20030;-73
2022/05/02 13:34:06;;;;;;;5.32;3.63;;;19.50;68.90;;;;;;4993853;28;20037;-73
2022/05/02 13:36:41;;;;;;;5.20;3.65;;;19.50;68.80;;;;;;4990919;28;20455;-74
2022/05/02 13:39:14;;;;;;;5.65;3.83;;;19.60;68.70;;;;;;5010083;28;20041;-73
2022/05/02 13:42:07;;;;;;;5.47;3.80;;;19.60;68.50;;;;;;4991334;28;20114;-73
2022/05/02 13:44:47;;;;;;;3.58;3.05;;;19.50;67.80;;;;;;5009278;28;20045;-74
2022/05/02 13:47:14;;;;;;;4.43;2.90;;;19.50;68.60;;;;;;5008361;28;20100;-73
2022/05/02 13:49:49;;;;;;;5.03;3.95;;;19.40;68.80;;;;;;5012338;28;20104;-73